Time;durP1;ratioP1;P1;durP2;ratioP2;P2;SDS_P1;SDS_P2;PMS_P1;PMS_P2;Temp;Humidity;BMP_temperature;BMP_pressure;BME280_temperature;BME280_humidity;BME280_pressure;Samples;Min_cycle;Max_cycle;Signal;HPM_P1;HPM_P2
2021/05/07 00:02:12;;;;;;;6.15;2.50;;;;;;;8.21;70.52;99336.56;5008136;28;20045;-68
2021/05/07 00:04:50;;;;;;;4.95;2.60;;;;;;;8.35;69.90;99360.97;5024313;28;20497;-69
2021/05/07 00:07:16;;;;;;;7.80;3.05;;;;;;;8.21;71.02;99361.22;5026860;28;20041;-68
2021/05/07 00:09:42;;;;;;;7.18;2.90;;;;;;;8.12;72.79;99363.94;5026080;28;20080;-68
2021/05/07 00:12:09;;;;;;;5.50;3.03;;;;;;;8.19;72.95;99367.38;5025250;28;20049;-68
2021/05/07 00:14:35;;;;;;;8.85;3.10;;;;;;;7.98;73.40;99336.03;5006102;28;20181;-67
2021/05/07 00:17:01;;;;;;;5.80;2.90;;;;;;;8.22;72.93;99372.63;5008878;28;20080;-74
2021/05/07 00:19:27;;;;;;;8.93;3.45;;;;;;;8.19;73.47;99370.03;5009239;28;20050;-66
2021/05/07 00:21:57;;;;;;;8.10;3.30;;;;;;;8.19;73.38;99370.03;5024985;28;20049;-74
2021/05/07 00:24:23;;;;;;;11.15;3.90;;;;;;;8.22;73.19;99376.16;5026426;28;20049;-68
2021/05/07 00:26:50;;;;;;;8.85;3.65;;;;;;;8.17;73.62;99372.69;5026696;28;20489;-68
2021/05/07 00:29:19;;;;;;;8.23;3.78;;;;;;;8.16;73.71;99381.47;5025685;28;20037;-65
2021/05/07 00:31:45;;;;;;;8.80;4.22;;;;;;;8.08;74.06;99377.25;5007157;28;20512;-66
2021/05/07 00:34:11;;;;;;;11.07;3.92;;;;;;;8.03;74.29;99374.66;5024935;28;20060;-65
2021/05/07 00:36:37;;;;;;;8.75;3.40;;;;;;;7.82;74.16;99353.00;5008373;28;20041;-67
2021/05/07 00:39:05;;;;;;;8.88;4.28;;;;;;;8.07;73.88;99376.38;5024238;28;20394;-75
2021/05/07 00:41:31;;;;;;;14.50;4.57;;;;;;;8.00;73.84;99373.84;5008622;28;20796;-68
2021/05/07 00:43:57;;;;;;;7.18;3.58;;;;;;;8.11;73.76;99382.47;5024982;28;20046;-66
2021/05/07 00:46:23;;;;;;;8.10;3.40;;;;;;;8.09;73.80;99374.59;5025976;28;20045;-66
2021/05/07 00:48:49;;;;;;;7.30;4.05;;;;;;;8.18;73.04;99386.75;5025311;28;20060;-66
2021/05/07 00:51:15;;;;;;;9.57;4.07;;;;;;;7.87;73.88;99359.13;5026674;28;20123;-66
2021/05/07 00:53:41;;;;;;;8.32;3.63;;;;;;;8.24;73.10;99390.19;4992478;28;20068;-65
2021/05/07 00:56:07;;;;;;;12.00;3.60;;;;;;;8.13;73.08;99388.59;5025165;28;20081;-69
2021/05/07 00:58:33;;;;;;;8.93;3.72;;;;;;;8.05;73.21;99364.97;5024773;28;20068;-72
2021/05/07 01:00:59;;;;;;;5.65;3.80;;;;;;;8.15;72.94;99386.81;5024228;28;20421;-66
2021/05/07 01:03:27;;;;;;;11.40;3.60;;;;;;;8.01;73.77;99381.75;5024640;28;20529;-65
2021/05/07 01:05:57;;;;;;;10.18;3.53;;;;;;;8.04;73.06;99370.28;5023948;28;20052;-66
2021/05/07 01:08:24;;;;;;;5.95;3.78;;;;;;;8.11;73.28;99385.13;5007943;28;20140;-66
2021/05/07 01:10:54;;;;;;;8.27;3.80;;;;;;;7.98;73.01;99349.22;4992247;28;20477;-65
2021/05/07 01:13:21;;;;;;;6.10;3.63;;;;;;;8.05;72.66;99390.50;4989881;28;20042;-65
2021/05/07 01:15:51;;;;;;;5.93;3.15;;;;;;;7.67;73.72;99391.06;4991135;28;20520;-68
2021/05/07 01:18:20;;;;;;;6.97;2.90;;;;;;;7.58;73.43;99359.56;5025821;28;20049;-71
2021/05/07 01:20:48;;;;;;;4.47;3.40;;;;;;;7.51;74.47;99383.38;5023998;28;20045;-70
2021/05/07 01:23:15;;;;;;;9.50;3.60;;;;;;;7.50;74.38;99398.34;5008634;28;20045;-67
2021/05/07 01:25:43;;;;;;;5.45;3.65;;;;;;;7.51;74.50;99384.28;5024420;28;20045;-67
2021/05/07 01:28:12;;;;;;;7.85;3.55;;;;;;;7.56;74.17;99363.09;5024626;28;20073;-66
2021/05/07 01:30:47;;;;;;;5.28;3.65;;;;;;;7.81;73.61;99388.22;4973679;28;20907;-69
2021/05/07 01:33:35;;;;;;;5.38;3.67;;;;;;;8.02;72.70;99379.97;5007009;28;20563;-70
2021/05/07 01:36:01;;;;;;;7.32;4.03;;;;;;;7.74;72.82;99376.91;5007395;28;20088;-67
2021/05/07 01:38:27;;;;;;;7.32;3.67;;;;;;;7.69;72.97;99356.75;5024875;28;20068;-67
2021/05/07 01:40:54;;;;;;;6.25;3.85;;;;;;;7.70;73.41;99367.28;5023497;28;20566;-67
2021/05/07 01:43:26;;;;;;;4.85;3.70;;;;;;;7.78;72.68;99373.31;5021379;28;20041;-68
2021/05/07 01:45:57;;;;;;;8.20;4.10;;;;;;;7.84;72.48;99373.22;5024492;28;20045;-68
2021/05/07 01:48:23;;;;;;;7.85;4.07;;;;;;;8.00;71.92;99374.72;5025765;28;20048;-68
2021/05/07 01:50:50;;;;;;;4.10;2.42;;;;;;;8.02;71.83;99387.88;4989508;28;20049;-67
2021/05/07 01:53:17;;;;;;;6.63;2.65;;;;;;;7.65;72.60;99365.59;5022620;28;20042;-69
2021/05/07 01:55:47;;;;;;;4.05;2.30;;;;;;;7.80;72.86;99391.78;5022392;28;20037;-67
2021/05/07 01:58:19;;;;;;;4.18;2.50;;;;;;;7.84;72.80;99396.97;5019823;28;20041;-69
2021/05/07 02:00:49;;;;;;;4.20;2.50;;;;;;;7.84;72.42;99381.13;5005878;28;20128;-69
2021/05/07 02:03:14;;;;;;;5.22;2.40;;;;;;;7.92;72.23;99381.03;5023067;28;20581;-69
2021/05/07 02:05:47;;;;;;;7.53;2.55;;;;;;;7.99;72.13;99396.72;5003877;28;20227;-68
2021/05/07 02:08:13;;;;;;;5.88;3.05;;;;;;;7.99;72.44;99394.09;5023310;28;20049;-68
2021/05/07 02:10:40;;;;;;;4.57;2.80;;;;;;;8.18;71.81;99402.59;5023862;28;20041;-67
2021/05/07 02:13:09;;;;;;;5.43;2.75;;;;;;;8.29;71.64;99400.69;5007249;28;20061;-72
2021/05/07 02:15:40;;;;;;;6.32;2.30;;;;;;;8.11;72.83;99407.09;5006171;28;20144;-66
2021/05/07 02:18:09;;;;;;;6.90;2.70;;;;;;;7.91;73.43;99405.69;5024164;28;20520;-68
2021/05/07 02:20:38;;;;;;;4.97;2.88;;;;;;;8.03;73.09;99403.72;5025151;28;20049;-73
2021/05/07 02:23:04;;;;;;;6.40;2.90;;;;;;;7.83;73.17;99379.38;5006917;28;20052;-71
2021/05/07 02:25:31;;;;;;;7.18;2.63;;;;;;;7.98;73.34;99405.56;5026396;28;20168;-68
2021/05/07 02:27:58;;;;;;;4.70;2.88;;;;;;;7.92;73.76;99408.28;5027376;28;20049;-68
2021/05/07 02:30:30;;;;;;;5.63;2.72;;;;;;;7.93;73.63;99407.41;5008201;28;20137;-68
2021/05/07 02:32:57;;;;;;;7.78;3.28;;;;;;;8.06;73.56;99418.63;4994767;28;20045;-67
2021/05/07 02:35:25;;;;;;;12.50;2.80;;;;;;;8.22;72.65;99415.75;5028732;28;20099;-67
2021/05/07 02:37:55;;;;;;;6.68;2.90;;;;;;;8.61;71.67;99424.78;5025015;28;20095;-66
2021/05/07 02:40:21;;;;;;;7.30;2.80;;;;;;;8.67;71.08;99417.59;5027305;28;20134;-68
2021/05/07 02:42:48;;;;;;;7.72;2.72;;;;;;;8.38;72.12;99417.25;5026276;28;20053;-68
2021/05/07 02:45:18;;;;;;;4.75;2.63;;;;;;;8.17;73.02;99427.25;4992124;28;20078;-72
2021/05/07 02:47:44;;;;;;;5.32;2.75;;;;;;;8.32;72.43;99429.69;5010727;28;20172;-66
2021/05/07 02:50:14;;;;;;;6.43;3.05;;;;;;;8.13;72.04;99407.06;5028142;28;20052;-68
2021/05/07 02:52:44;;;;;;;4.45;2.80;;;;;;;8.06;73.33;99432.72;4994350;28;20050;-71
2021/05/07 02:55:11;;;;;;;6.53;3.10;;;;;;;8.32;73.01;99434.97;5009361;28;20033;-68
2021/05/07 02:57:38;;;;;;;9.38;3.10;;;;;;;7.99;73.51;99443.41;5009928;28;20141;-67
2021/05/07 03:00:08;;;;;;;6.90;3.03;;;;;;;8.00;73.09;99450.41;4994590;28;20041;-69
2021/05/07 03:02:35;;;;;;;6.72;3.10;;;;;;;8.34;72.74;99449.91;5025003;28;20053;-67
2021/05/07 03:05:01;;;;;;;4.53;3.28;;;;;;;7.94;73.20;99442.56;5010720;28;20037;-68
2021/05/07 03:07:28;;;;;;;8.60;3.45;;;;;;;8.06;73.28;99451.19;5027714;28;20102;-68
2021/05/07 03:09:54;;;;;;;6.53;3.30;;;;;;;8.09;73.40;99450.28;5026066;28;20152;-72
2021/05/07 03:12:19;;;;;;;11.65;3.05;;;;;;;8.03;73.07;99430.09;5028040;28;20261;-67
2021/05/07 03:14:45;;;;;;;8.55;3.20;;;;;;;8.32;72.20;99424.41;5027221;28;20041;-66
2021/05/07 03:17:11;;;;;;;4.78;3.28;;;;;;;8.37;71.89;99455.13;5026135;28;20068;-66
2021/05/07 03:19:37;;;;;;;8.18;3.35;;;;;;;8.36;72.70;99468.38;5025486;28;20076;-66
2021/05/07 03:22:03;;;;;;;4.28;2.72;;;;;;;8.25;72.83;99460.63;5028025;28;20397;-65
2021/05/07 03:24:29;;;;;;;8.40;2.90;;;;;;;8.26;72.36;99442.97;5026615;28;20103;-66
2021/05/07 03:26:58;;;;;;;8.73;3.20;;;;;;;8.35;73.13;99472.75;5027322;28;20042;-75
2021/05/07 03:29:23;;;;;;;5.15;3.30;;;;;;;7.95;72.77;99413.50;5024520;28;20091;-66
2021/05/07 03:31:49;;;;;;;8.18;3.40;;;;;;;7.97;73.06;99421.41;5009402;28;20072;-66
2021/05/07 03:34:15;;;;;;;4.40;3.00;;;;;;;8.28;73.47;99481.66;5009347;28;20038;-66
2021/05/07 03:36:41;;;;;;;3.53;2.92;;;;;;;8.40;73.16;99486.78;5025555;28;20060;-67
2021/05/07 03:39:07;;;;;;;6.82;2.95;;;;;;;8.33;73.05;99497.47;5027260;28;20037;-66
2021/05/07 03:41:33;;;;;;;6.10;3.35;;;;;;;8.27;72.94;99468.53;5027078;28;20052;-68
2021/05/07 03:43:58;;;;;;;5.15;3.08;;;;;;;8.22;73.83;99494.09;5008928;28;20122;-69
2021/05/07 03:46:24;;;;;;;7.22;2.90;;;;;;;8.33;73.34;99495.72;5006560;28;20073;-68
2021/05/07 03:48:50;;;;;;;5.93;3.08;;;;;;;8.46;73.15;99501.66;5027041;28;20446;-69
2021/05/07 03:51:16;;;;;;;5.43;3.10;;;;;;;8.35;72.38;99474.56;5009539;28;20038;-67
2021/05/07 03:53:42;;;;;;;7.85;3.15;;;;;;;8.88;71.71;99493.91;5008566;28;20048;-71
2021/05/07 03:56:08;;;;;;;5.95;3.30;;;;;;;9.00;70.96;99493.69;5024590;28;20053;-68
2021/05/07 03:58:34;;;;;;;6.88;3.45;;;;;;;8.74;71.33;99477.41;5009579;28;20389;-68
2021/05/07 04:01:00;;;;;;;5.43;2.95;;;;;;;8.92;71.17;99495.59;5026125;28;20053;-69
2021/05/07 04:03:25;;;;;;;6.55;3.60;;;;;;;8.92;71.26;99505.28;5025019;28;20072;-67
2021/05/07 04:05:54;;;;;;;5.15;3.20;;;;;;;8.94;70.83;99507.00;5026722;28;20827;-67
2021/05/07 04:08:24;;;;;;;7.35;3.08;;;;;;;8.66;71.76;99504.84;5025128;28;20053;-66
2021/05/07 04:11:00;;;;;;;6.65;3.22;;;;;;;8.83;71.30;99505.44;5008500;28;20060;-70
2021/05/07 04:13:32;;;;;;;8.50;3.50;;;;;;;8.83;71.54;99479.88;5027688;28;20045;-68
2021/05/07 04:15:58;;;;;;;7.03;3.30;;;;;;;8.96;70.68;99509.63;5007785;28;20132;-69
2021/05/07 04:18:24;;;;;;;4.70;3.50;;;;;;;9.02;70.07;99518.31;5023034;28;20242;-68
2021/05/07 04:20:52;;;;;;;10.50;3.20;;;;;;;8.78;71.40;99508.16;5008504;28;20094;-66
2021/05/07 04:23:18;;;;;;;6.63;3.42;;;;;;;8.98;69.79;99503.41;5026650;28;20045;-67
2021/05/07 04:25:44;;;;;;;7.15;3.40;;;;;;;9.17;69.84;99509.22;5026536;28;20135;-66
2021/05/07 04:28:10;;;;;;;5.45;2.97;;;;;;;9.15;69.41;99511.88;4990250;28;20140;-69
2021/05/07 04:30:35;;;;;;;8.90;2.90;;;;;;;9.03;69.20;99514.75;5023939;28;20127;-71
2021/05/07 04:33:02;;;;;;;5.43;2.80;;;;;;;9.13;69.11;99516.34;5026266;28;20045;-67
2021/05/07 04:35:27;;;;;;;6.18;2.30;;;;;;;9.07;68.10;99515.59;5024532;28;20049;-72
2021/05/07 04:37:54;;;;;;;6.97;2.67;;;;;;;9.36;67.68;99511.50;5007860;28;20075;-67
2021/05/07 04:40:20;;;;;;;5.97;2.47;;;;;;;9.41;66.46;99503.47;5024992;28;20042;-68
2021/05/07 04:42:46;;;;;;;5.00;2.63;;;;;;;9.34;66.18;99496.56;5009056;28;20103;-66
2021/05/07 04:45:12;;;;;;;7.32;2.50;;;;;;;9.38;65.62;99525.56;5024217;28;20046;-68
2021/05/07 04:47:38;;;;;;;3.80;2.20;;;;;;;9.35;64.65;99525.63;5025688;28;20084;-68
2021/05/07 04:50:05;;;;;;;2.85;2.10;;;;;;;9.38;65.36;99528.22;5026758;28;20076;-67
2021/05/07 04:52:32;;;;;;;4.97;2.50;;;;;;;9.41;64.99;99503.47;5024969;28;20041;-77
2021/05/07 04:54:58;;;;;;;4.65;2.63;;;;;;;9.57;63.69;99519.94;5025072;28;20881;-68
2021/05/07 04:57:25;;;;;;;5.65;2.08;;;;;;;9.44;64.48;99525.47;5024631;28;20124;-68
2021/05/07 04:59:51;;;;;;;5.32;2.65;;;;;;;9.57;64.30;99526.06;5024069;28;21468;-68
2021/05/07 05:02:18;;;;;;;3.78;2.30;;;;;;;9.72;63.53;99527.56;5006112;28;20076;-68
2021/05/07 05:04:43;;;;;;;5.22;2.45;;;;;;;9.61;64.51;99516.31;5025752;28;20401;-68
2021/05/07 05:07:10;;;;;;;3.95;2.40;;;;;;;9.74;64.31;99534.56;5025805;28;20041;-68
2021/05/07 05:09:36;;;;;;;5.22;2.65;;;;;;;9.69;64.15;99541.72;4992252;28;20135;-68
2021/05/07 05:12:02;;;;;;;5.82;2.15;;;;;;;10.06;63.71;99539.22;5024373;28;20606;-68
2021/05/07 05:14:28;;;;;;;2.95;1.80;;;;;;;9.92;63.13;99528.03;5025148;28;20524;-67
2021/05/07 05:16:53;;;;;;;7.03;2.35;;;;;;;10.03;63.16;99533.94;5025831;28;20037;-69
2021/05/07 05:19:19;;;;;;;3.85;2.40;;;;;;;10.26;60.95;99531.69;5023231;28;20548;-71
2021/05/07 05:21:45;;;;;;;3.50;2.15;;;;;;;10.29;60.76;99537.81;5024502;28;20206;-67
2021/05/07 05:24:11;;;;;;;11.02;2.30;;;;;;;10.33;61.05;99525.34;5025863;28;20529;-66
2021/05/07 05:26:37;;;;;;;9.30;2.40;;;;;;;10.72;60.28;99545.63;5025672;28;20049;-68
2021/05/07 05:29:04;;;;;;;6.50;2.28;;;;;;;10.61;59.40;99559.16;5006273;28;20072;-68
2021/05/07 05:31:30;;;;;;;9.07;2.60;;;;;;;10.71;58.77;99551.81;5006619;28;20045;-69
2021/05/07 05:33:56;;;;;;;10.85;2.17;;;;;;;10.89;57.44;99544.31;5024031;28;20551;-68
2021/05/07 05:36:24;;;;;;;2.70;1.45;;;;;;;10.88;57.11;99544.34;5025596;28;20628;-74
2021/05/07 05:38:49;;;;;;;5.15;1.80;;;;;;;10.82;55.95;99549.78;5006295;28;20037;-68
2021/05/07 05:41:15;;;;;;;3.42;1.60;;;;;;;10.86;56.26;99538.19;5023981;28;20124;-67
2021/05/07 05:43:41;;;;;;;8.65;1.50;;;;;;;10.65;56.21;99520.16;5007754;28;20042;-66
2021/05/07 05:46:07;;;;;;;4.93;1.40;;;;;;;10.73;57.55;99542.06;5022291;28;20498;-72
2021/05/07 05:48:33;;;;;;;11.88;1.90;;;;;;;10.76;55.56;99542.84;5025175;28;20045;-68
2021/05/07 05:50:59;;;;;;;9.07;2.05;;;;;;;10.78;57.00;99546.34;5021678;28;20045;-67
2021/05/07 05:53:25;;;;;;;2.95;1.75;;;;;;;10.75;55.96;99550.84;5023357;28;20056;-68
2021/05/07 05:55:51;;;;;;;6.63;1.77;;;;;;;10.58;55.46;99560.97;5021675;28;20053;-67
2021/05/07 05:58:17;;;;;;;3.00;1.27;;;;;;;10.85;55.49;99555.03;5023508;28;20045;-69
2021/05/07 06:00:42;;;;;;;6.25;1.83;;;;;;;11.01;55.43;99533.41;5026202;28;20064;-71
2021/05/07 06:03:08;;;;;;;4.72;1.80;;;;;;;10.92;55.73;99543.38;5027945;28;20162;-73
2021/05/07 06:05:34;;;;;;;5.45;1.70;;;;;;;11.14;57.27;99556.03;4993707;28;20064;-67
2021/05/07 06:08:00;;;;;;;13.15;2.85;;;;;;;11.24;55.57;99546.06;4995165;28;20046;-67
2021/05/07 06:10:27;;;;;;;4.10;2.10;;;;;;;11.17;55.55;99565.69;5010667;28;20140;-69
2021/05/07 06:12:53;;;;;;;4.55;2.05;;;;;;;11.12;55.11;99557.84;5008695;28;20053;-66
2021/05/07 06:15:20;;;;;;;8.30;2.03;;;;;;;11.28;55.43;99545.91;5010055;28;20064;-66
2021/05/07 06:17:47;;;;;;;5.15;1.80;;;;;;;11.22;54.54;99550.53;5028170;28;20049;-65
2021/05/07 06:20:17;;;;;;;9.77;2.10;;;;;;;11.35;54.08;99560.78;4994127;28;20418;-66
2021/05/07 06:22:46;;;;;;;5.90;1.95;;;;;;;11.24;53.15;99551.38;5027241;28;20072;-65
2021/05/07 06:25:14;;;;;;;4.97;1.90;;;;;;;11.14;53.90;99557.81;5028940;28;20139;-65
2021/05/07 06:27:41;;;;;;;9.80;2.38;;;;;;;10.93;53.35;99529.19;5027450;28;20501;-65
2021/05/07 06:30:09;;;;;;;10.23;2.40;;;;;;;11.23;53.53;99557.59;4975350;28;20107;-65
2021/05/07 06:32:35;;;;;;;10.77;1.98;;;;;;;11.17;52.54;99550.66;5028401;28;20136;-69
2021/05/07 06:35:01;;;;;;;11.80;2.13;;;;;;;11.25;53.13;99569.91;5010530;28;20068;-66
2021/05/07 06:37:28;;;;;;;6.28;2.00;;;;;;;11.38;53.02;99563.38;5026118;28;20128;-69
2021/05/07 06:39:54;;;;;;;8.05;2.08;;;;;;;11.34;53.05;99537.81;5027280;28;20141;-66
2021/05/07 06:42:20;;;;;;;9.85;1.77;;;;;;;11.46;52.09;99573.75;5010926;28;20063;-66
2021/05/07 06:44:46;;;;;;;2.75;1.60;;;;;;;11.61;51.78;99568.09;5026127;28;20100;-65
2021/05/07 06:47:12;;;;;;;3.17;1.70;;;;;;;11.37;50.68;99551.00;4991507;28;20041;-68
2021/05/07 06:49:44;;;;;;;4.60;1.80;;;;;;;11.45;51.58;99569.38;5010233;28;20041;-68
2021/05/07 06:52:10;;;;;;;4.57;2.00;;;;;;;11.77;51.63;99582.69;5028019;28;20096;-66
2021/05/07 06:54:36;;;;;;;7.00;2.13;;;;;;;11.75;50.52;99532.25;5024912;28;20041;-69
2021/05/07 06:57:02;;;;;;;3.70;1.90;;;;;;;12.32;49.48;99564.22;5029191;28;20130;-67
2021/05/07 06:59:31;;;;;;;7.20;1.88;;;;;;;12.89;49.08;99583.69;5028208;28;20063;-74
2021/05/07 07:01:59;;;;;;;10.30;2.00;;;;;;;13.29;48.07;99574.38;5025431;28;20034;-80
2021/05/07 07:04:26;;;;;;;5.75;1.67;;;;;;;13.12;47.85;99578.50;5025529;28;20992;-67
2021/05/07 07:06:57;;;;;;;4.53;2.00;;;;;;;12.84;46.96;99588.28;5010096;28;20041;-68
2021/05/07 07:09:24;;;;;;;5.25;2.25;;;;;;;13.35;47.19;99590.16;5027984;28;20037;-67
2021/05/07 07:11:52;;;;;;;4.65;1.80;;;;;;;13.88;45.93;99598.91;5025470;28;20065;-68
2021/05/07 07:14:18;;;;;;;8.73;2.00;;;;;;;14.60;45.11;99600.69;5027681;28;20103;-69
2021/05/07 07:16:43;;;;;;;10.20;1.70;;;;;;;15.08;43.97;99599.59;5027276;28;20045;-71
2021/05/07 07:19:10;;;;;;;6.63;2.25;;;;;;;14.01;44.68;99597.56;5026763;28;20413;-76
2021/05/07 07:21:36;;;;;;;4.53;2.28;;;;;;;14.00;45.32;99617.13;5010257;28;20055;-69
2021/05/07 07:24:07;;;;;;;5.80;1.92;;;;;;;14.09;45.50;99576.81;5009894;28;20057;-73
2021/05/07 07:26:36;;;;;;;7.35;2.10;;;;;;;14.63;42.03;99609.41;5024755;28;20045;-73
2021/05/07 07:29:26;;;;;;;12.30;2.20;;;;;;;14.87;43.34;99612.94;5027197;28;20072;-67
2021/05/07 07:31:52;;;;;;;6.40;2.20;;;;;;;15.57;43.02;99611.81;5010729;28;20040;-68
2021/05/07 07:34:19;;;;;;;7.47;2.00;;;;;;;15.43;42.90;99614.19;5025845;28;20045;-67
2021/05/07 07:36:46;;;;;;;8.48;1.83;;;;;;;16.07;40.85;99615.81;5009770;28;20076;-66
2021/05/07 07:39:14;;;;;;;3.92;1.40;;;;;;;15.06;41.56;99555.19;5010122;28;20041;-67
2021/05/07 07:41:40;;;;;;;3.85;2.15;;;;;;;16.40;41.06;99614.28;5026085;28;20067;-71
2021/05/07 07:44:07;;;;;;;4.20;1.70;;;;;;;15.92;40.89;99619.19;5009389;28;20132;-72
2021/05/07 07:46:34;;;;;;;5.07;1.92;;;;;;;15.38;42.02;99633.09;5024748;28;20103;-66
2021/05/07 07:49:03;;;;;;;5.72;2.10;;;;;;;16.09;40.89;99630.88;5026658;28;20527;-72
2021/05/07 07:51:31;;;;;;;10.85;1.90;;;;;;;15.76;40.93;99628.78;5025349;28;20092;-67
2021/05/07 07:54:11;;;;;;;8.52;1.92;;;;;;;16.44;39.04;99637.34;4994201;28;20041;-70
2021/05/07 07:56:38;;;;;;;3.13;1.30;;;;;;;15.40;39.64;99588.50;5023394;28;20046;-72
2021/05/07 07:59:05;;;;;;;7.32;1.65;;;;;;;15.00;40.79;99620.41;5026991;28;20037;-72
2021/05/07 08:01:31;;;;;;;10.43;2.33;;;;;;;15.28;39.60;99612.13;5008097;28;20049;-69
2021/05/07 08:03:56;;;;;;;5.97;2.50;;;;;;;15.05;41.34;99622.88;5026979;28;20523;-73
2021/05/07 08:06:23;;;;;;;5.57;1.75;;;;;;;18.20;35.22;99631.22;5006890;28;20136;-71
2021/05/07 08:08:50;;;;;;;5.10;2.13;;;;;;;19.13;32.69;99632.28;4992515;28;20121;-69
2021/05/07 08:11:16;;;;;;;6.45;1.73;;;;;;;18.73;33.70;99624.72;5025507;28;20052;-75
2021/05/07 08:13:43;;;;;;;3.53;1.75;;;;;;;17.00;37.40;99625.72;5025284;28;20120;-78
2021/05/07 08:16:10;;;;;;;7.97;1.90;;;;;;;19.77;33.47;99626.75;5024087;28;20041;-71
2021/05/07 08:18:39;;;;;;;2.55;1.63;;;;;;;19.22;32.02;99637.13;5008560;28;20041;-74
2021/05/07 08:21:11;;;;;;;6.13;1.33;;;;;;;18.00;33.28;99621.56;5025361;28;20043;-72
2021/05/07 08:23:37;;;;;;;6.72;2.13;;;;;;;20.47;30.37;99637.69;5024358;28;20087;-73
2021/05/07 08:26:07;;;;;;;3.10;1.25;;;;;;;19.09;31.46;99627.16;5008950;28;20041;-74
2021/05/07 08:28:33;;;;;;;5.28;1.88;;;;;;;21.98;28.82;99644.84;4989350;28;20079;-71
2021/05/07 08:30:58;;;;;;;3.50;1.70;;;;;;;19.87;31.09;99641.41;5005487;28;20100;-69
2021/05/07 08:33:24;;;;;;;4.22;2.05;;;;;;;22.34;28.81;99642.31;4988726;28;20095;-69
2021/05/07 08:35:53;;;;;;;5.47;1.77;;;;;;;23.19;27.16;99651.44;4989026;28;20046;-70
2021/05/07 08:38:19;;;;;;;4.70;2.15;;;;;;;21.03;28.63;99605.34;5005459;28;20037;-81
2021/05/07 08:40:45;;;;;;;5.50;1.50;;;;;;;21.32;29.22;99636.69;5024364;28;20410;-69
2021/05/07 08:43:13;;;;;;;4.50;1.80;;;;;;;22.29;28.02;99650.72;5026258;28;20046;-72
2021/05/07 08:45:39;;;;;;;3.28;1.45;;;;;;;22.54;27.42;99631.84;5025206;28;20512;-70
2021/05/07 08:48:06;;;;;;;3.80;2.00;;;;;;;21.01;28.67;99620.78;5022722;28;20072;-78
2021/05/07 08:50:33;;;;;;;5.90;1.90;;;;;;;23.96;25.76;99623.00;5009130;28;20093;-71
2021/05/07 08:53:00;;;;;;;7.07;1.67;;;;;;;23.90;26.32;99636.13;5008236;28;20045;-73
2021/05/07 08:55:26;;;;;;;5.10;1.48;;;;;;;25.22;25.35;99637.25;5006612;28;20328;-76
2021/05/07 08:57:53;;;;;;;5.93;1.50;;;;;;;23.02;26.60;99647.25;5007250;28;20048;-70
2021/05/07 09:00:21;;;;;;;4.25;1.35;;;;;;;27.40;22.90;99659.00;5025094;28;20562;-69
2021/05/07 09:02:47;;;;;;;7.60;1.60;;;;;;;25.70;23.50;99662.22;5026281;28;20087;-70
2021/05/07 09:05:13;;;;;;;11.60;1.35;;;;;;;25.56;23.26;99625.34;5024426;28;20136;-69
2021/05/07 09:07:40;;;;;;;3.35;1.67;;;;;;;25.93;23.39;99656.59;5007628;28;20049;-72
2021/05/07 09:10:06;;;;;;;10.70;1.65;;;;;;;25.36;22.78;99647.00;5025902;28;20378;-77
2021/05/07 09:12:40;;;;;;;2.25;1.35;;;;;;;26.90;22.03;99654.44;5006828;28;20061;-69
2021/05/07 09:15:09;;;;;;;4.57;1.85;;;;;;;25.04;23.51;99648.75;5007884;28;20041;-79
2021/05/07 09:17:37;;;;;;;3.42;1.60;;;;;;;26.32;22.73;99651.50;5008269;28;20076;-80
2021/05/07 09:20:09;;;;;;;3.30;1.50;;;;;;;24.79;24.01;99657.09;5020383;28;20154;-72
2021/05/07 09:22:36;;;;;;;4.18;1.40;;;;;;;24.57;23.60;99655.19;5008209;28;20136;-82
2021/05/07 09:25:11;;;;;;;3.15;1.10;;;;;;;21.53;27.22;99636.13;5008575;28;20049;-75
2021/05/07 09:27:38;;;;;;;3.05;1.27;;;;;;;20.09;29.16;99626.59;5023692;28;20520;-68
2021/05/07 09:30:10;;;;;;;3.90;1.65;;;;;;;18.91;30.89;99641.66;5007157;28;20044;-68
2021/05/07 09:32:37;;;;;;;4.47;1.75;;;;;;;21.95;27.46;99643.19;5007169;28;20041;-72
2021/05/07 09:35:07;;;;;;;6.72;1.52;;;;;;;25.35;24.21;99656.13;5009686;28;20053;-72
2021/05/07 09:37:35;;;;;;;3.63;1.80;;;;;;;25.03;23.79;99590.88;5028799;28;20042;-66
2021/05/07 09:40:19;;;;;;;2.70;1.30;;;;;;;25.93;23.42;99633.97;5028698;28;20057;-68
2021/05/07 09:42:47;;;;;;;2.45;1.00;;;;;;;26.02;22.98;99654.13;4995026;28;20037;-68
2021/05/07 09:45:20;;;;;;;3.42;1.20;;;;;;;26.64;22.53;99647.75;5028862;28;20053;-68
2021/05/07 09:47:47;;;;;;;3.25;1.20;;;;;;;25.20;22.69;99633.78;5003826;28;20053;-79
2021/05/07 09:50:14;;;;;;;6.85;1.33;;;;;;;26.96;21.22;99658.50;5010656;28;20610;-69
2021/05/07 09:52:41;;;;;;;5.22;1.58;;;;;;;27.37;20.58;99658.44;5028703;28;20042;-69
2021/05/07 09:55:08;;;;;;;2.08;1.10;;;;;;;27.60;20.99;99658.03;5008843;28;20536;-71
2021/05/07 09:57:36;;;;;;;4.05;1.27;;;;;;;27.24;20.58;99672.28;5010085;28;20068;-68
2021/05/07 10:00:05;;;;;;;4.82;1.88;;;;;;;27.14;21.23;99665.91;4995417;28;20047;-69
2021/05/07 10:02:39;;;;;;;4.00;1.42;;;;;;;25.63;22.15;99628.44;5027818;28;20047;-70
2021/05/07 10:05:07;;;;;;;5.68;1.08;;;;;;;24.87;22.32;99658.22;5009856;28;20132;-68
2021/05/07 10:07:33;;;;;;;4.35;1.55;;;;;;;25.51;22.31;99662.88;5012056;28;20552;-69
2021/05/07 10:10:04;;;;;;;6.20;1.55;;;;;;;27.17;20.89;99652.00;5027419;28;20208;-71
2021/05/07 10:12:34;;;;;;;7.43;1.63;;;;;;;25.30;21.63;99670.09;4992223;28;20057;-70
2021/05/07 10:15:04;;;;;;;4.53;1.20;;;;;;;26.35;21.71;99673.00;5011234;28;20497;-68
2021/05/07 10:17:31;;;;;;;3.50;1.20;;;;;;;28.28;19.92;99670.78;5027766;28;20151;-71
2021/05/07 10:20:00;;;;;;;4.32;1.23;;;;;;;26.03;22.02;99672.16;5025357;28;20055;-73
2021/05/07 10:22:41;;;;;;;3.05;1.30;;;;;;;25.15;22.58;99649.59;5027458;28;20149;-71
2021/05/07 10:25:16;;;;;;;3.72;1.30;;;;;;;26.23;21.48;99639.56;5027767;28;20049;-77
2021/05/07 10:27:47;;;;;;;6.07;1.10;;;;;;;26.22;21.90;99669.59;4994479;28;20801;-70
2021/05/07 10:30:28;;;;;;;1.95;1.00;;;;;;;23.52;23.90;99654.38;5028644;28;20041;-73
2021/05/07 10:32:58;;;;;;;4.82;0.95;;;;;;;22.99;24.92;99660.13;5018045;28;20465;-72
2021/05/07 10:35:33;;;;;;;2.78;1.10;;;;;;;22.26;26.01;99659.03;4977621;28;20050;-74
2021/05/07 10:38:07;;;;;;;2.60;1.38;;;;;;;23.04;24.78;99664.25;5011117;28;20127;-80
2021/05/07 10:40:33;;;;;;;4.32;1.40;;;;;;;24.73;22.32;99668.44;5026961;28;20118;-77
2021/05/07 10:43:03;;;;;;;3.38;1.20;;;;;;;22.97;23.89;99645.84;5011855;28;20049;-79
2021/05/07 10:45:41;;;;;;;2.72;1.17;;;;;;;20.35;26.67;99652.81;5009145;28;20055;-75
2021/05/07 10:48:24;;;;;;;4.72;1.45;;;;;;;24.23;23.35;99645.28;5010805;28;20504;-72
2021/05/07 10:50:57;;;;;;;3.40;1.25;;;;;;;25.06;22.26;99661.19;5007036;28;20099;-66
2021/05/07 10:53:27;;;;;;;2.65;1.02;;;;;;;22.44;23.63;99668.56;5009372;28;20033;-66
2021/05/07 10:55:58;;;;;;;6.00;1.08;;;;;;;21.24;25.28;99664.16;5009271;28;20151;-65
2021/05/07 10:58:36;;;;;;;1.13;0.77;;;;;;;21.61;24.57;99670.72;4992917;28;20056;-78
2021/05/07 11:01:26;;;;;;;2.72;1.60;;;;;;;25.72;21.61;99674.69;5027887;28;20050;-66
2021/05/07 11:04:45;;;;;;;;;;;;;;;;;;;;;
2021/05/07 11:07:33;;;;;;;6.82;1.30;;;;;;;27.46;20.28;99679.38;4928358;29;20048;-67
2021/05/07 11:10:06;;;;;;;4.25;1.08;;;;;;;25.74;20.91;99670.00;4928665;29;20059;-65
2021/05/07 11:12:35;;;;;;;5.38;1.10;;;;;;;26.68;21.08;99668.25;4910318;29;20047;-67
2021/05/07 11:15:05;;;;;;;4.70;1.20;;;;;;;27.12;20.16;99678.78;4912277;29;20216;-68
2021/05/07 11:17:31;;;;;;;2.83;0.98;;;;;;;27.35;19.95;99679.47;4892568;29;20185;-69
2021/05/07 11:19:57;;;;;;;5.43;0.98;;;;;;;25.70;21.32;99665.81;4907389;29;20208;-73
2021/05/07 11:22:26;;;;;;;2.83;1.00;;;;;;;24.11;21.70;99667.91;4894680;29;20048;-72
2021/05/07 11:24:52;;;;;;;3.95;0.90;;;;;;;24.22;21.86;99653.53;4909311;29;20060;-75
2021/05/07 11:27:28;;;;;;;6.30;1.23;;;;;;;23.81;22.06;99672.06;4892519;29;20075;-75
2021/05/07 11:30:03;;;;;;;8.05;1.50;;;;;;;21.92;24.03;99667.72;4909025;29;20044;-70
2021/05/07 11:32:30;;;;;;;6.72;1.42;;;;;;;21.21;24.78;99641.91;4907587;29;20143;-78
2021/05/07 11:34:59;;;;;;;6.15;1.30;;;;;;;20.49;25.49;99647.41;4922604;29;20362;-68
2021/05/07 11:37:29;;;;;;;5.38;1.50;;;;;;;20.45;26.13;99640.47;4876902;29;20621;-68
2021/05/07 11:40:04;;;;;;;8.27;1.25;;;;;;;22.50;24.00;99643.84;4908234;29;20095;-66
2021/05/07 11:42:41;;;;;;;4.32;1.25;;;;;;;22.13;23.37;99647.34;4922941;29;20071;-69